Time;durP1;ratioP1;P1;durP2;ratioP2;P2;SDS_P1;SDS_P2;PMS_P1;PMS_P2;Temp;Humidity;BMP_temperature;BMP_pressure;BME280_temperature;BME280_humidity;BME280_pressure;Samples;Min_cycle;Max_cycle;Signal;HPM_P1;HPM_P2
2023/10/08 00:01:55;;;;;;;14.98;4.97;;;;;;;;;;5028441;28;20046;-85
2023/10/08 00:04:28;;;;;;;10.25;5.65;;;;;;;;;;5030496;28;20033;-82
2023/10/08 00:07:02;;;;;;;12.48;5.57;;;;;;;;;;5030462;28;20045;-83
2023/10/08 00:09:37;;;;;;;10.88;5.18;;;;;;;;;;5028289;28;20052;-81
2023/10/08 00:12:10;;;;;;;9.05;4.78;;;;;;;;;;5029292;28;20511;-82
2023/10/08 00:14:49;;;;;;;10.80;5.57;;;;;;;;;;5030181;28;20042;-81
2023/10/08 00:17:20;;;;;;;8.38;4.35;;;;;;;;;;5030343;28;20049;-81
2023/10/08 00:19:52;;;;;;;12.73;4.80;;;;;;;;;;5031202;28;20511;-82
2023/10/08 00:22:25;;;;;;;8.63;4.38;;;;;;;;;;5031235;28;20048;-82
2023/10/08 00:24:58;;;;;;;12.35;5.15;;;;;;;;;;5030998;28;20045;-81
2023/10/08 00:27:38;;;;;;;9.35;4.63;;;;;;;;;;5030831;28;20046;-80
2023/10/08 00:30:17;;;;;;;17.13;4.97;;;;;;;;;;5022299;28;20042;-81
2023/10/08 00:32:49;;;;;;;12.75;4.68;;;;;;;;;;5008935;28;20492;-80
2023/10/08 00:35:20;;;;;;;9.93;4.43;;;;;;;;;;5039125;28;20054;-82
2023/10/08 00:38:00;;;;;;;9.65;4.65;;;;;;;;;;5009072;28;20053;-80
2023/10/08 00:40:44;;;;;;;13.45;4.90;;;;;;;;;;5032429;28;20040;-81
2023/10/08 00:43:36;;;;;;;10.13;4.63;;;;;;;;;;5048441;28;20056;-80
2023/10/08 00:57:30;;;;;;;9.70;4.22;;;;;;;;;;5048821;28;20045;-79
2023/10/08 01:00:03;;;;;;;12.40;6.78;;;;;;;;;;5048391;28;20053;-80
2023/10/08 01:02:49;;;;;;;12.45;4.60;;;;;;;;;;5039723;28;20045;-80
2023/10/08 01:05:42;;;;;;;11.13;4.43;;;;;;;;;;5028045;27;20053;-81
2023/10/08 01:08:23;;;;;;;14.77;4.75;;;;;;;;;;5027849;28;20049;-83
2023/10/08 01:11:00;;;;;;;12.07;5.38;;;;;;;;;;5041283;28;20053;-83
2023/10/08 01:13:36;;;;;;;9.32;4.70;;;;;;;;;;5047877;28;20497;-83
2023/10/08 01:16:09;;;;;;;11.13;5.18;;;;;;;;;;5048056;28;20600;-81
2023/10/08 01:18:46;;;;;;;9.52;4.75;;;;;;;;;;5046320;28;20049;-81
2023/10/08 01:21:33;;;;;;;10.02;5.57;;;;;;;;;;5047873;28;20064;-81
2023/10/08 01:24:08;;;;;;;11.60;5.35;;;;;;;;;;5047542;28;20041;-84
2023/10/08 01:26:40;;;;;;;11.05;5.30;;;;;;;;;;5047556;28;20422;-80
2023/10/08 01:29:21;;;;;;;9.93;4.88;;;;;;;;;;5047838;28;20037;-81
2023/10/08 01:31:56;;;;;;;11.23;4.57;;;;;;;;;;5047444;28;20392;-81
2023/10/08 01:34:30;;;;;;;12.13;6.85;;;;;;;;;;5048182;28;20052;-83
2023/10/08 01:37:08;;;;;;;14.63;5.43;;;;;;;;;;5047556;28;20045;-83
2023/10/08 01:39:42;;;;;;;17.80;5.82;;;;;;;;;;5067974;28;20047;-81
2023/10/08 01:42:22;;;;;;;14.40;5.68;;;;;;;;;;5132133;27;20063;-80
2023/10/08 01:44:55;;;;;;;11.82;5.47;;;;;;;;;;5092598;28;20050;-83
2023/10/08 01:47:30;;;;;;;12.57;5.18;;;;;;;;;;5049909;28;20041;-82
2023/10/08 01:50:08;;;;;;;13.18;5.07;;;;;;;;;;5051146;28;20045;-80
2023/10/08 01:52:40;;;;;;;10.65;4.40;;;;;;;;;;5051504;28;20102;-80
2023/10/08 01:55:17;;;;;;;8.98;4.65;;;;;;;;;;5053003;28;20040;-81
2023/10/08 01:57:53;;;;;;;8.50;4.13;;;;;;;;;;5102620;27;20500;-79
2023/10/08 02:00:26;;;;;;;9.52;4.65;;;;;;;;;;5119839;27;20377;-79
2023/10/08 02:02:59;;;;;;;14.02;5.18;;;;;;;;;;5136136;27;20043;-80
2023/10/08 02:05:31;;;;;;;9.60;5.57;;;;;;;;;;5137770;27;20381;-80
2023/10/08 02:08:03;;;;;;;15.77;6.00;;;;;;;;;;5135692;27;20105;-81
2023/10/08 02:10:33;;;;;;;;;;;;;;;;;;5138411;27;20474;-82
2023/10/08 02:13:04;;;;;;;7.88;3.85;;;;;;;;;;5137432;27;19926;-82
2023/10/08 02:15:39;;;;;;;7.65;3.80;;;;;;;;;;5136184;27;20050;-82
2023/10/08 02:18:12;;;;;;;7.90;4.00;;;;;;;;;;5137507;27;20044;-82
2023/10/08 02:20:43;;;;;;;9.25;5.00;;;;;;;;;;5136215;27;20057;-81
2023/10/08 02:23:13;;;;;;;10.40;4.68;;;;;;;;;;5135922;27;20465;-81
2023/10/08 02:25:44;;;;;;;8.68;4.65;;;;;;;;;;5137166;27;20488;-80
2023/10/08 02:28:20;;;;;;;10.05;4.82;;;;;;;;;;5137358;27;20046;-80
2023/10/08 02:30:51;;;;;;;11.05;4.72;;;;;;;;;;5137433;27;20048;-83
2023/10/08 02:33:21;;;;;;;11.85;4.43;;;;;;;;;;5135622;27;20406;-80
2023/10/08 02:35:53;;;;;;;9.13;4.25;;;;;;;;;;5137391;27;20039;-84
2023/10/08 02:38:24;;;;;;;15.80;5.38;;;;;;;;;;5135712;27;20047;-80
2023/10/08 02:40:56;;;;;;;13.38;4.97;;;;;;;;;;5135397;27;20389;-83
2023/10/08 02:43:30;;;;;;;9.70;4.70;;;;;;;;;;5135618;27;20393;-82
2023/10/08 02:46:01;;;;;;;12.50;5.20;;;;;;;;;;5136860;27;20046;-82
2023/10/08 02:48:32;;;;;;;15.70;5.10;;;;;;;;;;5137027;27;20047;-80
2023/10/08 02:51:14;;;;;;;9.27;4.53;;;;;;;;;;5136946;27;20050;-84
2023/10/08 02:53:46;;;;;;;10.00;5.60;;;;;;;;;;5137029;27;20039;-80
2023/10/08 02:56:19;;;;;;;10.80;4.72;;;;;;;;;;5137193;27;20413;-81
2023/10/08 02:58:49;;;;;;;18.48;5.93;;;;;;;;;;5134356;27;20500;-81
2023/10/08 03:01:20;;;;;;;17.25;4.82;;;;;;;;;;5136460;27;20047;-83
2023/10/08 03:03:54;;;;;;;12.40;4.88;;;;;;;;;;5136573;27;20519;-81
2023/10/08 03:06:24;;;;;;;11.90;5.70;;;;;;;;;;5137013;27;20047;-82
2023/10/08 03:08:55;;;;;;;11.82;4.88;;;;;;;;;;5134611;27;20051;-80
2023/10/08 03:11:26;;;;;;;10.60;4.85;;;;;;;;;;5136324;27;20040;-83
2023/10/08 03:13:56;;;;;;;10.70;4.82;;;;;;;;;;5134768;27;20051;-81
2023/10/08 03:16:34;;;;;;;18.13;5.35;;;;;;;;;;5136516;27;20046;-81
2023/10/08 03:19:06;;;;;;;11.85;5.43;;;;;;;;;;5135507;27;20035;-82
2023/10/08 03:27:20;;;;;;;14.48;5.72;;;;;;;;;;5072956;28;20403;-81
2023/10/08 03:29:54;;;;;;;16.10;5.28;;;;;;;;;;5124573;27;20371;-82
2023/10/08 03:32:26;;;;;;;12.82;5.78;;;;;;;;;;5136052;27;20039;-81
2023/10/08 03:34:59;;;;;;;9.73;4.97;;;;;;;;;;5136294;27;20409;-80
2023/10/08 03:37:29;;;;;;;12.32;5.07;;;;;;;;;;5134355;27;20050;-81
2023/10/08 03:42:49;;;;;;;10.93;5.38;;;;;;;;;;5136408;27;20050;-82
2023/10/08 03:48:14;;;;;;;11.73;5.50;;;;;;;;;;5135702;27;20035;-82
2023/10/08 03:50:52;;;;;;;9.88;5.13;;;;;;;;;;5134372;27;20042;-80
2023/10/08 03:53:22;;;;;;;17.58;5.35;;;;;;;;;;5135947;27;20043;-79
2023/10/08 03:55:55;;;;;;;15.10;5.30;;;;;;;;;;5136077;27;20359;-80
2023/10/08 03:58:38;;;;;;;10.52;5.75;;;;;;;;;;5135365;27;20039;-82
2023/10/08 04:01:09;;;;;;;12.02;5.03;;;;;;;;;;5133530;27;20405;-80
2023/10/08 04:06:28;;;;;;;12.75;7.03;;;;;;;;;;5135402;27;20481;-80
2023/10/08 04:14:20;;;;;;;16.63;7.82;;;;;;;;;;5135276;27;20047;-84
2023/10/08 04:16:52;;;;;;;16.80;7.15;;;;;;;;;;5135154;27;20046;-82
2023/10/08 04:19:27;;;;;;;19.85;8.68;;;;;;;;;;5135331;27;20035;-80
2023/10/08 04:21:58;;;;;;;17.38;8.52;;;;;;;;;;5135153;27;20385;-81
2023/10/08 04:24:29;;;;;;;15.52;7.40;;;;;;;;;;5135154;27;20400;-79
2023/10/08 04:26:59;;;;;;;16.15;6.82;;;;;;;;;;5135156;27;20055;-80
2023/10/08 04:29:32;;;;;;;13.48;7.00;;;;;;;;;;5135536;27;20050;-80
2023/10/08 04:32:24;;;;;;;16.80;6.63;;;;;;;;;;5135088;27;20473;-80
2023/10/08 04:34:53;;;;;;;14.35;6.45;;;;;;;;;;5134887;27;20064;-83
2023/10/08 04:37:32;;;;;;;14.00;6.50;;;;;;;;;;5134829;27;20496;-80
2023/10/08 04:40:04;;;;;;;14.07;6.18;;;;;;;;;;5135200;27;20050;-80
2023/10/08 04:42:37;;;;;;;12.88;6.80;;;;;;;;;;5135000;27;20039;-81
2023/10/08 04:45:13;;;;;;;13.43;7.00;;;;;;;;;;5135139;27;20420;-80
2023/10/08 04:47:43;;;;;;;14.00;5.90;;;;;;;;;;5134944;27;20047;-80
2023/10/08 04:50:17;;;;;;;14.68;6.85;;;;;;;;;;5134378;27;20043;-79
2023/10/08 04:52:58;;;;;;;15.00;6.22;;;;;;;;;;5135007;27;20039;-80
2023/10/08 04:55:28;;;;;;;13.07;6.68;;;;;;;;;;5134743;27;20039;-80
2023/10/08 04:57:59;;;;;;;12.43;5.57;;;;;;;;;;5133451;27;20370;-80
2023/10/08 05:03:43;;;;;;;16.52;5.53;;;;;;;;;;5101336;27;20063;-80
2023/10/08 05:06:26;;;;;;;9.73;5.20;;;;;;;;;;5134273;27;20054;-83
2023/10/08 05:09:10;;;;;;;12.10;5.30;;;;;;;;;;5134430;27;20047;-83
2023/10/08 05:15:21;;;;;;;15.43;5.47;;;;;;;;;;5134633;27;20039;-81
2023/10/08 05:30:28;;;;;;;13.48;5.38;;;;;;;;;;5135295;28;20455;-80
2023/10/08 05:35:49;;;;;;;17.70;6.85;;;;;;;;;;5134126;27;20047;-80
2023/10/08 05:38:38;;;;;;;13.20;5.50;;;;;;;;;;5134243;28;20047;-79
2023/10/08 05:41:27;;;;;;;16.55;6.18;;;;;;;;;;5134320;27;20054;-81
2023/10/08 05:46:51;;;;;;;13.00;5.45;;;;;;;;;;5133997;28;20504;-86
2023/10/08 05:54:36;;;;;;;11.93;5.63;;;;;;;;;;5133918;27;20043;-84
2023/10/08 06:13:09;;;;;;;13.25;5.35;;;;;;;;;;5133836;28;20453;-82
2023/10/08 06:15:51;;;;;;;11.73;4.35;;;;;;;;;;5132716;28;20063;-83
2023/10/08 06:18:28;;;;;;;10.15;4.13;;;;;;;;;;5134042;28;20050;-81
2023/10/08 06:21:11;;;;;;;8.65;3.88;;;;;;;;;;5133967;28;20042;-80
2023/10/08 06:23:46;;;;;;;9.18;4.38;;;;;;;;;;5133632;28;20054;-84
2023/10/08 06:26:20;;;;;;;10.95;4.50;;;;;;;;;;5134289;28;20050;-82
2023/10/08 06:28:57;;;;;;;10.90;4.38;;;;;;;;;;5133910;28;20051;-82
2023/10/08 06:31:29;;;;;;;10.70;3.85;;;;;;;;;;5132104;28;20045;-81
2023/10/08 06:34:03;;;;;;;9.20;4.60;;;;;;;;;;5134495;27;20054;-85
2023/10/08 06:36:34;;;;;;;8.98;4.63;;;;;;;;;;5137133;27;20046;-85
2023/10/08 06:39:05;;;;;;;13.05;4.30;;;;;;;;;;5137213;27;20070;-81
2023/10/08 06:41:42;;;;;;;12.00;4.00;;;;;;;;;;5137080;27;20044;-81
2023/10/08 06:44:20;;;;;;;9.73;4.38;;;;;;;;;;5135370;27;20062;-82
2023/10/08 06:46:54;;;;;;;8.90;4.45;;;;;;;;;;5135339;27;20469;-84
2023/10/08 06:49:24;;;;;;;7.13;3.35;;;;;;;;;;5136982;27;20043;-81
2023/10/08 06:51:54;;;;;;;12.88;4.30;;;;;;;;;;5137148;27;20513;-81
2023/10/08 06:54:30;;;;;;;10.57;3.55;;;;;;;;;;5137175;27;20469;-83
2023/10/08 06:57:04;;;;;;;14.68;3.53;;;;;;;;;;5135147;27;20047;-84
2023/10/08 06:59:35;;;;;;;9.10;3.50;;;;;;;;;;5136829;27;20458;-81
2023/10/08 07:02:07;;;;;;;8.25;3.83;;;;;;;;;;5137072;27;20409;-85
2023/10/08 07:04:39;;;;;;;10.20;3.90;;;;;;;;;;5136685;27;20054;-81
2023/10/08 07:07:11;;;;;;;8.85;3.72;;;;;;;;;;5136992;27;20043;-80
2023/10/08 07:09:43;;;;;;;8.85;3.75;;;;;;;;;;5136368;27;20043;-81
2023/10/08 07:12:15;;;;;;;7.65;3.45;;;;;;;;;;5136793;27;20518;-81
2023/10/08 07:14:46;;;;;;;11.80;3.58;;;;;;;;;;5136620;27;20039;-82
2023/10/08 07:17:19;;;;;;;11.20;3.80;;;;;;;;;;5136595;27;20046;-81
2023/10/08 07:19:50;;;;;;;7.70;3.38;;;;;;;;;;5136502;27;20393;-82
2023/10/08 07:22:28;;;;;;;7.53;3.30;;;;;;;;;;5135056;27;20402;-81
2023/10/08 07:24:59;;;;;;;8.45;3.70;;;;;;;;;;5136664;27;20128;-82
2023/10/08 07:27:31;;;;;;;8.57;3.22;;;;;;;;;;5136585;27;20481;-80
2023/10/08 07:30:10;;;;;;;8.02;2.90;;;;;;;;;;5136199;27;20482;-81
2023/10/08 07:32:41;;;;;;;7.35;3.17;;;;;;;;;;5136093;27;20112;-81
2023/10/08 07:37:53;;;;;;;7.20;2.63;;;;;;;;;;5136256;27;20045;-86
2023/10/08 07:40:29;;;;;;;9.02;2.67;;;;;;;;;;5136093;27;20046;-81
2023/10/08 07:43:08;;;;;;;8.10;3.08;;;;;;;;;;5135862;27;20504;-82
2023/10/08 07:45:38;;;;;;;6.75;2.70;;;;;;;;;;5135619;27;20043;-82
2023/10/08 07:48:09;;;;;;;9.30;2.53;;;;;;;;;;5135704;27;20058;-82
2023/10/08 07:50:45;;;;;;;9.02;2.45;;;;;;;;;;5136355;27;20035;-84
2023/10/08 07:53:19;;;;;;;4.25;2.25;;;;;;;;;;5136234;27;20512;-81
2023/10/08 07:55:49;;;;;;;6.72;2.42;;;;;;;;;;5101354;27;20049;-81
2023/10/08 07:58:19;;;;;;;10.40;2.88;;;;;;;;;;5031768;28;20053;-81
2023/10/08 08:00:53;;;;;;;10.65;2.90;;;;;;;;;;5031859;28;20376;-80
2023/10/08 08:03:24;;;;;;;9.80;2.92;;;;;;;;;;5031594;28;20045;-81
2023/10/08 08:05:55;;;;;;;5.38;2.58;;;;;;;;;;5031410;28;20064;-81
2023/10/08 08:08:27;;;;;;;6.45;2.30;;;;;;;;;;5029960;28;20065;-83
2023/10/08 08:11:05;;;;;;;6.40;2.70;;;;;;;;;;5030656;28;20061;-85
2023/10/08 08:13:35;;;;;;;8.45;2.83;;;;;;;;;;5031383;28;20042;-81
2023/10/08 08:16:19;;;;;;;11.38;2.63;;;;;;;;;;5031551;28;20048;-81
2023/10/08 08:18:57;;;;;;;6.18;2.38;;;;;;;;;;5031434;28;20046;-81
2023/10/08 08:21:30;;;;;;;6.35;2.38;;;;;;;;;;5031471;28;20045;-80
2023/10/08 08:24:12;;;;;;;5.10;2.10;;;;;;;;;;5031290;28;20042;-80
2023/10/08 08:27:01;;;;;;;7.80;2.75;;;;;;;;;;5031062;28;20048;-81
2023/10/08 08:29:44;;;;;;;7.20;2.75;;;;;;;;;;5031204;28;20380;-83
2023/10/08 08:32:21;;;;;;;5.93;2.13;;;;;;;;;;5029742;28;20411;-85
2023/10/08 08:34:52;;;;;;;7.35;2.53;;;;;;;;;;5030873;28;20064;-79
2023/10/08 08:37:25;;;;;;;6.50;2.70;;;;;;;;;;5031227;28;20041;-85
2023/10/08 08:39:58;;;;;;;7.38;2.53;;;;;;;;;;5030788;28;20046;-81
2023/10/08 08:42:35;;;;;;;6.60;3.03;;;;;;;;;;5030813;28;20049;-82
2023/10/08 08:45:09;;;;;;;16.63;3.00;;;;;;;;;;5030849;28;20048;-84
2023/10/08 08:47:41;;;;;;;7.30;2.95;;;;;;;;;;5030663;28;20037;-85
2023/10/08 08:50:12;;;;;;;6.63;2.85;;;;;;;;;;5030908;28;20049;-82
2023/10/08 08:52:43;;;;;;;6.60;2.90;;;;;;;;;;5030969;28;20053;-82
2023/10/08 08:55:17;;;;;;;9.57;2.83;;;;;;;;;;5014708;28;20396;-83
2023/10/08 08:57:49;;;;;;;7.45;2.85;;;;;;;;;;5029615;28;20045;-81
2023/10/08 09:00:20;;;;;;;8.48;2.70;;;;;;;;;;5030943;28;20042;-81
2023/10/08 09:02:52;;;;;;;4.90;2.38;;;;;;;;;;5030939;28;20066;-81
2023/10/08 09:05:25;;;;;;;4.43;2.17;;;;;;;;;;5029995;28;20054;-85
2023/10/08 09:08:07;;;;;;;9.27;2.50;;;;;;;;;;5030512;28;20061;-84
2023/10/08 09:10:51;;;;;;;8.75;2.25;;;;;;;;;;5030270;28;20041;-81
2023/10/08 09:13:25;;;;;;;15.10;2.58;;;;;;;;;;5013944;28;20045;-84
2023/10/08 09:16:27;;;;;;;9.70;2.45;;;;;;;;;;5029703;28;20045;-81
2023/10/08 09:18:58;;;;;;;5.70;2.10;;;;;;;;;;5007981;28;20057;-80
2023/10/08 09:21:30;;;;;;;8.07;1.90;;;;;;;;;;5029190;28;20050;-81
2023/10/08 09:24:00;;;;;;;9.70;2.40;;;;;;;;;;5029219;28;20048;-81
2023/10/08 09:26:31;;;;;;;6.25;2.70;;;;;;;;;;5029186;28;20054;-81
2023/10/08 09:29:01;;;;;;;8.25;2.10;;;;;;;;;;5029597;28;20046;-81
2023/10/08 09:31:35;;;;;;;6.15;2.28;;;;;;;;;;5029446;28;20049;-81
2023/10/08 09:34:06;;;;;;;9.38;2.00;;;;;;;;;;5028623;28;20515;-81
2023/10/08 09:36:36;;;;;;;7.10;2.33;;;;;;;;;;5029441;28;20057;-81
2023/10/08 09:39:13;;;;;;;6.30;2.75;;;;;;;;;;5029683;28;20056;-80
2023/10/08 09:41:47;;;;;;;5.07;2.15;;;;;;;;;;5030541;28;20053;-81
2023/10/08 09:44:20;;;;;;;4.65;1.80;;;;;;;;;;5029670;28;20042;-81
2023/10/08 09:47:06;;;;;;;6.78;2.13;;;;;;;;;;5054132;28;20376;-80
2023/10/08 09:49:42;;;;;;;3.85;2.08;;;;;;;;;;5041945;28;20041;-81
2023/10/08 09:52:16;;;;;;;11.32;2.22;;;;;;;;;;5081577;28;20046;-80
2023/10/08 09:55:12;;;;;;;6.32;2.58;;;;;;;;;;5074537;28;20055;-80
2023/10/08 09:57:43;;;;;;;7.45;2.42;;;;;;;;;;5113480;28;20051;-81
2023/10/08 10:00:18;;;;;;;6.80;2.20;;;;;;;;;;5041437;28;20045;-82
2023/10/08 10:02:49;;;;;;;5.38;2.75;;;;;;;;;;5076997;28;20491;-81
2023/10/08 10:05:24;;;;;;;6.68;2.80;;;;;;;;;;5047841;28;20037;-81
2023/10/08 10:07:55;;;;;;;;;;;;;;;;;;5116522;27;20055;-84
2023/10/08 10:10:27;;;;;;;11.13;3.92;;;;;;;;;;5137921;27;19919;-80
2023/10/08 10:13:00;;;;;;;10.50;3.50;;;;;;;;;;5137502;27;20043;-81
2023/10/08 10:15:38;;;;;;;14.65;4.88;;;;;;;;;;5137491;27;20039;-81
2023/10/08 10:18:18;;;;;;;19.92;6.40;;;;;;;;;;5137656;27;20481;-83
2023/10/08 10:21:00;;;;;;;15.10;6.05;;;;;;;;;;5137879;27;20047;-83
2023/10/08 10:23:37;;;;;;;17.00;6.28;;;;;;;;;;5137439;27;20050;-81
2023/10/08 10:26:44;;;;;;;17.02;6.63;;;;;;;;;;5137610;27;20424;-81
2023/10/08 10:29:15;;;;;;;18.55;7.07;;;;;;;;;;5115822;27;20055;-81
2023/10/08 10:31:53;;;;;;;16.90;6.10;;;;;;;;;;5137218;27;20393;-80
2023/10/08 10:34:27;;;;;;;18.30;6.57;;;;;;;;;;5135360;27;20050;-81
2023/10/08 10:37:08;;;;;;;;;;;;;;;;;;5138068;27;20043;-80
2023/10/08 10:39:42;;;;;;;16.08;6.30;;;;;;;;;;5137169;27;19930;-83
2023/10/08 10:42:21;;;;;;;12.05;3.88;;;;;;;;;;5136001;27;20050;-81
2023/10/08 10:44:58;;;;;;;8.48;2.78;;;;;;;;;;5137243;27;20046;-82
2023/10/08 10:47:42;;;;;;;6.82;2.92;;;;;;;;;;5137200;27;20039;-83
2023/10/08 10:52:51;;;;;;;7.20;3.08;;;;;;;;;;5136669;27;20043;-80
2023/10/08 10:55:31;;;;;;;7.35;2.70;;;;;;;;;;5137064;27;20054;-81
2023/10/08 10:58:11;;;;;;;4.22;1.55;;;;;;;;;;5137076;27;20382;-81
2023/10/08 11:03:17;;;;;;;5.22;2.10;;;;;;;;;;5134991;27;20047;-81
2023/10/08 11:05:54;;;;;;;5.82;2.42;;;;;;;;;;5136609;27;20065;-80
2023/10/08 11:08:26;;;;;;;4.45;1.98;;;;;;;;;;5136151;27;20058;-81
2023/10/08 11:10:58;;;;;;;5.28;1.85;;;;;;;;;;5136008;27;20050;-80
2023/10/08 11:13:34;;;;;;;6.60;2.53;;;;;;;;;;5010405;28;20042;-80
2023/10/08 11:16:07;;;;;;;5.43;2.13;;;;;;;;;;5010001;28;20484;-81
2023/10/08 11:18:47;;;;;;;5.88;2.22;;;;;;;;;;5009979;28;20388;-81
2023/10/08 11:21:23;;;;;;;4.85;2.25;;;;;;;;;;5025629;28;20038;-83
2023/10/08 11:23:55;;;;;;;5.70;2.33;;;;;;;;;;5027545;28;20056;-80
2023/10/08 11:26:38;;;;;;;5.45;2.38;;;;;;;;;;5030030;28;20492;-83
2023/10/08 11:29:14;;;;;;;7.60;2.50;;;;;;;;;;5029454;27;20034;-83
2023/10/08 11:31:44;;;;;;;5.80;2.75;;;;;;;;;;5028376;28;20064;-86
2023/10/08 11:34:19;;;;;;;4.68;2.72;;;;;;;;;;5029429;28;20044;-81
2023/10/08 11:36:55;;;;;;;6.05;2.72;;;;;;;;;;5133489;27;20481;-85
2023/10/08 11:39:31;;;;;;;5.88;2.47;;;;;;;;;;5133669;27;20039;-82
2023/10/08 11:42:03;;;;;;;7.13;3.00;;;;;;;;;;5132382;27;20050;-84
2023/10/08 11:44:36;;;;;;;5.18;2.70;;;;;;;;;;5132740;27;20047;-82
2023/10/08 11:47:21;;;;;;;5.82;2.42;;;;;;;;;;5131689;27;20047;-82
2023/10/08 11:50:00;;;;;;;8.30;2.72;;;;;;;;;;5133513;27;20043;-81
2023/10/08 11:52:31;;;;;;;6.97;2.83;;;;;;;;;;5104714;27;20071;-83
2023/10/08 11:55:01;;;;;;;9.15;3.00;;;;;;;;;;5051355;28;20056;-84
2023/10/08 11:57:32;;;;;;;5.35;2.78;;;;;;;;;;5051181;28;20052;-86
2023/10/08 12:00:18;;;;;;;6.03;2.75;;;;;;;;;;5051466;28;20052;-82
2023/10/08 12:02:56;;;;;;;4.90;2.78;;;;;;;;;;5051541;28;20041;-85
2023/10/08 12:05:28;;;;;;;4.72;2.45;;;;;;;;;;5051532;28;20064;-83
2023/10/08 12:07:59;;;;;;;;;;;;;;;;;;5051746;28;20057;-82
2023/10/08 12:10:34;;;;;;;12.02;3.08;;;;;;;;;;5050778;28;19936;-82
2023/10/08 12:13:05;;;;;;;7.13;3.22;;;;;;;;;;5051430;27;20049;-81
2023/10/08 12:15:38;;;;;;;7.03;3.33;;;;;;;;;;5051071;28;20355;-82
2023/10/08 12:18:13;;;;;;;6.95;3.38;;;;;;;;;;5050903;28;20033;-80
2023/10/08 12:20:47;;;;;;;5.82;3.22;;;;;;;;;;5050044;28;20045;-82
2023/10/08 12:23:37;;;;;;;7.13;3.08;;;;;;;;;;5051350;28;20045;-82
2023/10/08 12:26:07;;;;;;;6.95;3.15;;;;;;;;;;5050936;28;20049;-85
2023/10/08 12:28:38;;;;;;;7.60;2.78;;;;;;;;;;5048950;28;20487;-83
2023/10/08 12:31:10;;;;;;;13.30;4.03;;;;;;;;;;5050934;28;20049;-83
2023/10/08 12:33:40;;;;;;;11.52;4.53;;;;;;;;;;5051086;28;20053;-83
2023/10/08 12:36:12;;;;;;;10.15;3.30;;;;;;;;;;5051107;28;20041;-82
2023/10/08 12:38:43;;;;;;;6.20;2.90;;;;;;;;;;5051001;28;20411;-83
2023/10/08 12:41:16;;;;;;;7.18;2.90;;;;;;;;;;5051046;28;20383;-83
2023/10/08 12:43:51;;;;;;;7.82;3.45;;;;;;;;;;5050930;28;20391;-85
2023/10/08 12:46:25;;;;;;;6.72;3.45;;;;;;;;;;5050602;28;20501;-81
2023/10/08 12:48:56;;;;;;;7.75;2.72;;;;;;;;;;5050635;28;20037;-81
2023/10/08 12:51:31;;;;;;;8.73;3.72;;;;;;;;;;5050420;28;20056;-80
2023/10/08 12:54:10;;;;;;;10.18;4.68;;;;;;;;;;5050780;28;20068;-80
2023/10/08 12:56:54;;;;;;;12.48;7.90;;;;;;;;;;5050559;28;20049;-82
2023/10/08 12:59:25;;;;;;;9.63;5.72;;;;;;;;;;5050565;28;20045;-80
2023/10/08 13:01:56;;;;;;;10.15;5.28;;;;;;;;;;5050322;28;20047;-81
2023/10/08 13:04:34;;;;;;;13.43;8.73;;;;;;;;;;5050417;28;20487;-81
2023/10/08 13:07:05;;;;;;;14.52;5.30;;;;;;;;;;5048719;28;20045;-80
2023/10/08 13:09:36;;;;;;;9.05;5.32;;;;;;;;;;5049611;28;20415;-82
2023/10/08 13:12:07;;;;;;;12.13;5.35;;;;;;;;;;5049323;28;20052;-79
2023/10/08 13:14:39;;;;;;;63.00;40.35;;;;;;;;;;5049503;28;20041;-80
2023/10/08 13:17:10;;;;;;;16.17;10.07;;;;;;;;;;5050244;28;20041;-80
2023/10/08 13:19:41;;;;;;;12.55;6.22;;;;;;;;;;5049538;28;20040;-83
2023/10/08 13:22:19;;;;;;;21.63;11.07;;;;;;;;;;5048033;28;20048;-80
2023/10/08 13:24:50;;;;;;;14.10;8.32;;;;;;;;;;5050049;28;20041;-81
2023/10/08 13:27:20;;;;;;;13.52;7.70;;;;;;;;;;5050637;28;20395;-83
2023/10/08 13:29:51;;;;;;;18.83;12.02;;;;;;;;;;5050118;28;20048;-81
2023/10/08 13:32:23;;;;;;;9.85;5.75;;;;;;;;;;5050410;28;20056;-82
2023/10/08 13:34:53;;;;;;;9.70;5.25;;;;;;;;;;5049908;28;20041;-79
2023/10/08 13:37:23;;;;;;;9.05;4.72;;;;;;;;;;5050012;28;20049;-83
2023/10/08 13:39:53;;;;;;;6.97;4.20;;;;;;;;;;5050329;28;20070;-78
2023/10/08 13:42:23;;;;;;;9.68;4.75;;;;;;;;;;5048902;28;20052;-83
2023/10/08 13:44:54;;;;;;;7.75;3.85;;;;;;;;;;5053510;28;20053;-81
2023/10/08 13:47:28;;;;;;;10.73;5.25;;;;;;;;;;5053937;28;20055;-81
2023/10/08 13:49:59;;;;;;;25.33;11.30;;;;;;;;;;5053430;28;20433;-81
2023/10/08 13:52:29;;;;;;;10.00;5.32;;;;;;;;;;5053876;28;20045;-81
2023/10/08 13:55:00;;;;;;;11.23;4.40;;;;;;;;;;5053392;28;20048;-81
2023/10/08 13:57:32;;;;;;;7.00;3.63;;;;;;;;;;5052144;28;20044;-84
2023/10/08 14:00:12;;;;;;;9.18;3.88;;;;;;;;;;5053262;28;20041;-81
2023/10/08 14:02:44;;;;;;;5.75;3.08;;;;;;;;;;5053843;28;20053;-79
2023/10/08 14:05:15;;;;;;;9.05;3.90;;;;;;;;;;5053461;28;20037;-81
2023/10/08 14:07:45;;;;;;;10.60;4.95;;;;;;;;;;5053130;28;20060;-84
2023/10/08 14:10:18;;;;;;;23.67;12.07;;;;;;;;;;5053158;28;20049;-84
2023/10/08 14:12:49;;;;;;;7.50;4.15;;;;;;;;;;5053446;28;20483;-80
2023/10/08 14:15:19;;;;;;;7.65;3.28;;;;;;;;;;5053022;28;20124;-80
2023/10/08 14:17:53;;;;;;;6.93;3.42;;;;;;;;;;5053288;28;20375;-80
2023/10/08 14:20:23;;;;;;;6.68;2.80;;;;;;;;;;5053071;28;20045;-80
2023/10/08 14:22:57;;;;;;;8.85;3.97;;;;;;;;;;5051603;28;20077;-80
2023/10/08 14:25:33;;;;;;;7.28;3.90;;;;;;;;;;5052754;28;20045;-83
2023/10/08 14:28:08;;;;;;;7.00;3.67;;;;;;;;;;5052135;28;20051;-81
2023/10/08 14:30:41;;;;;;;10.23;4.97;;;;;;;;;;5052831;28;20383;-84
2023/10/08 14:33:23;;;;;;;14.30;3.58;;;;;;;;;;5052975;28;20041;-79
2023/10/08 14:44:23;;;;;;;11.40;3.45;;;;;;;;;;5052680;28;20068;-82
2023/10/08 14:46:54;;;;;;;8.45;3.38;;;;;;;;;;5052877;28;20048;-86
2023/10/08 14:49:26;;;;;;;6.10;3.00;;;;;;;;;;5053328;28;20041;-81
2023/10/08 14:51:57;;;;;;;8.55;3.03;;;;;;;;;;5052399;28;20033;-81
2023/10/08 14:54:28;;;;;;;7.18;3.35;;;;;;;;;;5050099;28;20049;-81
2023/10/08 14:56:58;;;;;;;11.55;4.18;;;;;;;;;;5052554;28;20049;-81
2023/10/08 14:59:31;;;;;;;6.45;3.03;;;;;;;;;;5052722;28;20472;-81
2023/10/08 15:02:01;;;;;;;6.20;2.80;;;;;;;;;;5051443;28;20059;-81
2023/10/08 15:04:33;;;;;;;6.32;3.17;;;;;;;;;;5052004;28;20056;-82
2023/10/08 15:07:04;;;;;;;6.85;3.22;;;;;;;;;;5052191;28;20521;-81
2023/10/08 15:09:35;;;;;;;8.68;3.72;;;;;;;;;;5052342;28;20049;-81
2023/10/08 15:12:08;;;;;;;7.43;3.15;;;;;;;;;;5052787;28;20049;-81
2023/10/08 15:14:38;;;;;;;19.23;11.48;;;;;;;;;;5051412;28;20483;-80
2023/10/08 15:17:09;;;;;;;13.95;7.72;;;;;;;;;;5051817;28;20052;-81
2023/10/08 15:19:39;;;;;;;11.27;5.28;;;;;;;;;;5050687;28;20525;-83
2023/10/08 15:22:11;;;;;;;;;;;;;;;;;;5052648;28;20455;-83
2023/10/08 15:24:43;;;;;;;8.93;5.07;;;;;;;;;;5051737;28;19929;-81
2023/10/08 15:27:14;;;;;;;8.63;3.70;;;;;;;;;;5052453;28;20475;-81
2023/10/08 15:29:44;;;;;;;5.10;3.05;;;;;;;;;;5051849;28;20102;-82
2023/10/08 15:32:14;;;;;;;9.70;2.53;;;;;;;;;;5052373;28;20383;-86
2023/10/08 15:34:44;;;;;;;5.63;2.70;;;;;;;;;;5051931;28;20048;-81
2023/10/08 15:37:18;;;;;;;4.82;2.97;;;;;;;;;;5052381;28;20380;-82
2023/10/08 15:39:49;;;;;;;7.53;2.65;;;;;;;;;;5051665;28;20394;-79
2023/10/08 15:42:19;;;;;;;8.52;2.97;;;;;;;;;;5052144;28;20049;-80
2023/10/08 15:44:49;;;;;;;7.18;2.42;;;;;;;;;;5051871;28;20045;-82
2023/10/08 15:47:19;;;;;;;3.67;2.00;;;;;;;;;;5034078;28;20076;-81
2023/10/08 15:49:49;;;;;;;6.03;2.13;;;;;;;;;;5051318;28;20064;-83
2023/10/08 15:52:21;;;;;;;4.88;2.58;;;;;;;;;;5050236;28;20056;-82
2023/10/08 15:54:51;;;;;;;;;;;;;;;;;;5052321;28;20049;-81
2023/10/08 15:57:21;;;;;;;6.90;2.88;;;;;;;;;;5051443;28;19921;-82
2023/10/08 15:59:52;;;;;;;7.55;2.80;;;;;;;;;;5049837;28;20061;-82
2023/10/08 16:02:22;;;;;;;5.35;2.72;;;;;;;;;;5050011;28;20056;-80
2023/10/08 16:04:54;;;;;;;7.35;2.88;;;;;;;;;;5051401;28;20201;-81
2023/10/08 16:07:25;;;;;;;5.32;2.63;;;;;;;;;;5051204;28;20048;-84
2023/10/08 16:09:55;;;;;;;6.13;2.80;;;;;;;;;;5052112;28;20045;-81
2023/10/08 16:12:25;;;;;;;4.72;2.50;;;;;;;;;;5052002;28;20052;-82
2023/10/08 16:14:55;;;;;;;7.63;3.05;;;;;;;;;;5051217;28;20041;-81
2023/10/08 16:17:30;;;;;;;7.20;2.78;;;;;;;;;;5051096;28;20052;-81
2023/10/08 16:20:11;;;;;;;4.88;2.63;;;;;;;;;;5050964;28;20048;-81
2023/10/08 16:22:47;;;;;;;6.93;3.25;;;;;;;;;;5051221;28;20041;-81
2023/10/08 16:25:18;;;;;;;8.32;2.83;;;;;;;;;;5051140;28;20037;-85
2023/10/08 16:27:52;;;;;;;7.97;3.28;;;;;;;;;;5049294;28;20060;-81
2023/10/08 16:30:28;;;;;;;7.32;2.75;;;;;;;;;;5051513;28;20042;-81
2023/10/08 16:32:59;;;;;;;6.32;2.53;;;;;;;;;;5051790;28;20049;-81
2023/10/08 16:35:30;;;;;;;8.85;2.55;;;;;;;;;;5051341;28;20052;-83
2023/10/08 16:38:01;;;;;;;7.95;2.65;;;;;;;;;;5050863;28;20037;-84
2023/10/08 16:40:31;;;;;;;5.32;2.42;;;;;;;;;;5050094;28;20480;-81
2023/10/08 16:43:02;;;;;;;5.50;2.75;;;;;;;;;;5050784;28;20391;-82
2023/10/08 16:45:35;;;;;;;6.63;2.28;;;;;;;;;;5050879;28;20048;-81
2023/10/08 16:48:07;;;;;;;3.92;2.25;;;;;;;;;;5050952;28;20041;-84
2023/10/08 16:50:39;;;;;;;7.57;2.33;;;;;;;;;;5051633;28;20048;-80
2023/10/08 16:53:10;;;;;;;7.22;2.20;;;;;;;;;;5050710;28;20499;-82